ZBHH METAR and TAF | Updated Today

ZBHH METAR

Baita International Airport

Observation time: 25 min. ago

ZBHH 251900Z 06002MPS CAVOK 09/M07 Q1016 NOSIG

Need help? Read our tutorial on how to read METARs or read the parsed version below.

Baita International Airport (ZBHH) METAR

  • Weather conditions on Wed, 25 May 2022 19:00:00 +0000 (25 min. ago):
  • Present conditions: Dry
  • Clouds: Clear skies
  • Visibility: Greater than 10 km
  • Wind: 60 degrees at 2 knots
  • Temperature: 9 celsius
  • Dew point: -7 celsius
  • Pressure: 1016 millibars
  • Remarks: None


Useful to know...

ZBHH TAF

Baita International Airport

TAF ZBHH 251500Z 2518/2618 06004MPS CAVOK TX27/2607Z TN09/2522Z
Observation time: 4:25 hr. ago
Need help? Read our tutorial on how to read TAFs or read the parsed version below.

Parsed version of TAF for Baita International Airport (ZBHH)

  • From 25 May at 18:00 UTC, to day 26 of the month at 18:00 UTC
  • Visibility: Greater than 10 km
  • Wind: 60 degrees at 4

Airports near ZBHH

No airports found within 100nm radius.